Indianapolis, Indiana
Traffic Map
Current Weather Conditions
Indianapolis, Indiana
Few Clouds
Few Clouds
16°
Feels Like: 16°
Wind Chill: 16° Ceiling: Unl
Heat Index: 16° Visibility: 8mi
Dew Point: 12° Wind: 9mph
Humidity: 78% Direction: 260° (W)
Pressure: 29.98in Gusts: 0mph
Raw Report DataKIND 251454Z 26008KT 8SM FEW250 16/12 A2998 RMK AO2 SLP151 T01610122 51004
Traffic Incident Summary
Active as of:
Severity:
Category:
InformationThere was an issue retrieving the traffic information for this location. Please try a different location or try again shortly.
Advertisements
Track Severe Weather on mobile